Time;durP1;ratioP1;P1;durP2;ratioP2;P2;SDS_P1;SDS_P2;PMS_P1;PMS_P2;Temp;Humidity;BMP_temperature;BMP_pressure;BME280_temperature;BME280_humidity;BME280_pressure;Samples;Min_cycle;Max_cycle;Signal;HPM_P1;HPM_P2
2023/01/11 00:00:48;;;;;;;0.10;0.10;;;4.90;99.90;;;;;;5051285;28;20209;-53
2023/01/11 00:03:16;;;;;;;1.17;0.20;;;5.00;99.90;;;;;;5052041;28;20206;-53
2023/01/11 00:05:44;;;;;;;0.30;0.20;;;4.90;99.90;;;;;;5050260;28;20204;-52
2023/01/11 00:08:12;;;;;;;2.30;0.13;;;5.00;99.90;;;;;;5046343;28;20217;-53
2023/01/11 00:10:40;;;;;;;1.50;0.43;;;4.90;99.90;;;;;;5051016;28;20203;-53
2023/01/11 00:13:08;;;;;;;1.33;0.50;;;5.00;99.90;;;;;;5052693;28;20223;-53
2023/01/11 00:15:39;;;;;;;5.50;1.80;;;4.90;99.90;;;;;;5050176;28;20198;-53
2023/01/11 00:18:06;;;;;;;0.67;0.20;;;5.00;99.90;;;;;;5051554;28;20277;-53
2023/01/11 00:20:33;;;;;;;0.43;0.23;;;5.00;99.90;;;;;;5050345;28;20280;-54
2023/01/11 00:23:00;;;;;;;0.77;0.40;;;5.00;99.90;;;;;;5052595;28;20203;-53
2023/01/11 00:25:27;;;;;;;0.20;0.20;;;4.90;99.90;;;;;;5051992;28;20226;-54
2023/01/11 00:27:55;;;;;;;0.63;0.20;;;4.90;99.90;;;;;;5052527;28;20223;-53
2023/01/11 00:30:22;;;;;;;1.03;0.20;;;4.90;99.90;;;;;;5052704;28;20216;-53
2023/01/11 00:32:55;;;;;;;0.30;0.20;;;4.90;99.90;;;;;;5051660;28;20284;-52
2023/01/11 00:35:23;;;;;;;0.10;0.10;;;4.90;99.90;;;;;;5052748;28;20202;-53
2023/01/11 00:37:49;;;;;;;0.77;0.10;;;4.90;99.90;;;;;;5052214;28;20289;-54
2023/01/11 00:40:17;;;;;;;0.20;0.20;;;4.90;99.90;;;;;;5052305;28;20211;-53
2023/01/11 00:48:15;;;;;;;1.03;0.20;;;4.90;99.90;;;;;;5050973;28;20368;-53
2023/01/11 00:50:42;;;;;;;0.57;0.10;;;4.90;99.90;;;;;;5051080;28;20203;-53
2023/01/11 00:53:10;;;;;;;0.50;0.10;;;4.80;99.90;;;;;;5051830;28;20219;-53
2023/01/11 00:55:37;;;;;;;4.27;0.20;;;4.90;99.90;;;;;;5050949;28;20200;-53
2023/01/11 00:58:04;;;;;;;0.30;0.10;;;4.90;99.90;;;;;;5044722;28;20219;-53
2023/01/11 01:00:31;;;;;;;0.47;0.10;;;4.90;99.90;;;;;;5051322;28;20213;-53
2023/01/11 01:02:58;;;;;;;0.20;0.10;;;4.90;99.90;;;;;;5031141;28;20258;-53
2023/01/11 01:05:26;;;;;;;0.30;0.10;;;5.00;99.90;;;;;;5033504;28;20205;-53
2023/01/11 01:07:53;;;;;;;1.00;0.17;;;5.00;99.90;;;;;;5051466;28;20268;-53
2023/01/11 01:10:21;;;;;;;0.20;0.20;;;5.00;99.90;;;;;;5051222;28;20288;-53
2023/01/11 01:15:32;;;;;;;0.10;0.10;;;5.10;99.90;;;;;;5051442;28;20198;-53
2023/01/11 01:17:59;;;;;;;11.83;2.00;;;5.10;99.90;;;;;;5051504;28;20277;-53
2023/01/11 01:20:28;;;;;;;0.37;0.20;;;5.10;99.90;;;;;;5051384;28;20253;-52
2023/01/11 01:22:55;;;;;;;1.60;0.30;;;5.10;99.90;;;;;;5051772;28;20203;-53
2023/01/11 01:25:22;;;;;;;1.47;0.10;;;5.20;99.90;;;;;;5050566;28;20200;-53
2023/01/11 01:27:49;;;;;;;0.10;0.10;;;5.10;99.90;;;;;;5049422;28;20271;-53
2023/01/11 01:30:16;;;;;;;0.10;0.10;;;5.10;99.90;;;;;;5051073;28;20207;-53
2023/01/11 01:32:43;;;;;;;0.23;0.00;;;5.00;99.90;;;;;;5051119;28;20235;-53
2023/01/11 01:35:10;;;;;;;0.93;0.10;;;5.00;99.90;;;;;;5051049;28;20204;-53
2023/01/11 01:37:39;;;;;;;0.60;0.40;;;5.10;99.90;;;;;;5049837;28;20436;-53
2023/01/11 01:40:07;;;;;;;0.53;0.20;;;5.10;99.90;;;;;;5043219;28;20578;-53
2023/01/11 01:42:34;;;;;;;0.40;0.20;;;5.10;99.90;;;;;;5049509;28;20251;-53
2023/01/11 01:45:05;;;;;;;0.83;0.30;;;5.00;99.90;;;;;;5050927;28;20218;-53
2023/01/11 01:47:41;;;;;;;0.70;0.20;;;5.00;99.90;;;;;;5050897;28;20628;-53
2023/01/11 01:50:20;;;;;;;0.10;0.07;;;4.90;99.90;;;;;;5050089;28;20203;-53
2023/01/11 01:52:51;;;;;;;0.10;0.10;;;5.00;99.90;;;;;;5049594;28;20216;-53
2023/01/11 01:55:26;;;;;;;0.83;0.00;;;5.10;99.90;;;;;;5051001;28;20197;-53
2023/01/11 01:57:55;;;;;;;0.20;0.00;;;5.00;99.90;;;;;;5050010;28;20231;-52
2023/01/11 02:00:22;;;;;;;1.40;0.10;;;5.00;99.90;;;;;;5050522;28;20553;-53
2023/01/11 02:02:49;;;;;;;0.20;0.10;;;5.00;99.90;;;;;;5048140;28;20203;-52
2023/01/11 02:05:18;;;;;;;0.20;0.20;;;5.00;99.90;;;;;;5050655;28;20619;-53
2023/01/11 02:07:46;;;;;;;1.10;0.10;;;4.90;99.90;;;;;;5050593;28;20240;-53
2023/01/11 02:10:16;;;;;;;1.27;0.30;;;4.90;99.90;;;;;;5050500;28;20239;-53
2023/01/11 02:12:48;;;;;;;0.20;0.20;;;5.00;99.90;;;;;;5048304;28;20234;-52
2023/01/11 02:15:17;;;;;;;0.10;0.10;;;5.00;99.90;;;;;;5050557;28;20206;-53
2023/01/11 02:17:44;;;;;;;0.53;0.13;;;5.00;99.90;;;;;;5050620;28;20226;-53
2023/01/11 02:20:29;;;;;;;1.30;0.10;;;5.00;99.90;;;;;;5050226;28;20859;-53
2023/01/11 02:23:23;;;;;;;1.00;0.20;;;5.00;99.90;;;;;;5047657;28;20781;-53
2023/01/11 02:26:29;;;;;;;0.70;0.20;;;5.00;99.90;;;;;;5049761;28;20233;-55
2023/01/11 02:29:03;;;;;;;2.43;0.30;;;5.00;99.90;;;;;;5033039;28;20751;-53
2023/01/11 02:31:34;;;;;;;0.10;0.10;;;5.10;99.90;;;;;;5050338;28;20555;-52
2023/01/11 02:34:13;;;;;;;1.60;0.20;;;5.10;99.90;;;;;;5041289;28;20220;-52
2023/01/11 02:36:54;;;;;;;1.50;0.20;;;5.10;99.90;;;;;;5048617;28;20208;-53
2023/01/11 02:39:30;;;;;;;1.73;0.40;;;5.00;99.90;;;;;;5050548;28;20657;-53
2023/01/11 02:45:07;;;;;;;1.13;0.00;;;5.00;99.90;;;;;;5050083;28;20203;-53
2023/01/11 02:47:39;;;;;;;0.00;0.00;;;5.00;99.90;;;;;;5050109;28;20732;-53
2023/01/11 02:50:14;;;;;;;0.50;0.03;;;5.00;99.90;;;;;;5050184;28;20243;-53
2023/01/11 02:52:51;;;;;;;0.53;0.50;;;5.10;99.90;;;;;;5048251;28;20219;-53
2023/01/11 02:55:23;;;;;;;1.23;0.00;;;5.00;99.90;;;;;;5048004;28;20204;-52
2023/01/11 02:57:53;;;;;;;0.10;0.10;;;5.00;99.90;;;;;;5049940;28;20222;-52
2023/01/11 03:00:22;;;;;;;0.27;0.27;;;5.10;99.90;;;;;;5050081;28;20207;-52
2023/01/11 03:03:13;;;;;;;0.10;0.00;;;5.10;99.90;;;;;;5046494;28;20196;-53
2023/01/11 03:05:45;;;;;;;0.40;0.20;;;5.10;99.90;;;;;;5047851;28;20684;-52
2023/01/11 03:08:40;;;;;;;0.10;0.10;;;5.10;99.90;;;;;;5049058;28;20227;-53
2023/01/11 03:11:13;;;;;;;0.37;0.20;;;5.20;99.90;;;;;;5042505;28;20231;-53
2023/01/11 03:13:53;;;;;;;1.00;0.10;;;5.10;99.90;;;;;;5049775;28;20220;-53
2023/01/11 03:16:32;;;;;;;0.10;0.10;;;5.10;99.90;;;;;;5050074;28;20199;-53
2023/01/11 03:19:14;;;;;;;1.03;0.10;;;5.10;99.90;;;;;;5049942;28;20280;-53
2023/01/11 03:21:51;;;;;;;0.67;0.50;;;5.10;99.90;;;;;;5048985;28;20211;-52
2023/01/11 03:24:30;;;;;;;0.20;0.20;;;5.00;99.90;;;;;;5048218;28;20557;-53
2023/01/11 03:27:21;;;;;;;0.10;0.10;;;5.00;99.90;;;;;;5050584;28;20200;-53
2023/01/11 03:29:54;;;;;;;0.10;0.10;;;5.00;99.90;;;;;;5052679;28;20193;-53
2023/01/11 03:32:28;;;;;;;3.67;0.10;;;5.00;99.90;;;;;;5052613;28;20275;-53
2023/01/11 03:35:04;;;;;;;1.20;0.10;;;4.90;99.90;;;;;;5053537;28;20206;-53
2023/01/11 03:37:38;;;;;;;0.20;0.20;;;4.90;99.90;;;;;;5052497;28;20231;-53
2023/01/11 03:40:10;;;;;;;0.50;0.10;;;4.90;99.90;;;;;;5046447;28;20202;-52
2023/01/11 03:43:09;;;;;;;0.10;0.10;;;4.90;99.90;;;;;;5044215;28;20262;-54
2023/01/11 03:45:33;;;;;;;0.37;0.10;;;4.90;99.90;;;;;;5053472;28;20204;-53
2023/01/11 03:48:04;;;;;;;0.77;0.20;;;4.90;99.90;;;;;;5051703;28;20213;-53
2023/01/11 03:50:33;;;;;;;0.10;0.10;;;4.90;99.90;;;;;;5052082;28;20204;-56
2023/01/11 03:53:03;;;;;;;0.43;0.20;;;4.90;99.90;;;;;;5052276;28;20711;-53
2023/01/11 03:55:35;;;;;;;2.20;0.30;;;4.90;99.90;;;;;;5051832;28;20207;-53
2023/01/11 03:58:02;;;;;;;0.20;0.10;;;4.90;99.90;;;;;;5033254;28;20230;-53
2023/01/11 04:00:31;;;;;;;0.10;0.10;;;4.80;99.90;;;;;;5032744;28;20208;-54
2023/01/11 04:03:01;;;;;;;1.03;0.10;;;4.80;99.90;;;;;;5052422;28;20208;-54
2023/01/11 04:05:29;;;;;;;1.53;0.10;;;4.80;99.90;;;;;;5052979;28;20214;-53
2023/01/11 04:07:56;;;;;;;1.17;0.50;;;4.80;99.90;;;;;;5053018;28;20223;-53
2023/01/11 04:10:23;;;;;;;1.40;1.40;;;4.80;99.90;;;;;;5052253;28;20203;-52
2023/01/11 04:12:50;;;;;;;2.50;0.30;;;4.80;99.90;;;;;;5050831;28;20214;-52
2023/01/11 04:15:17;;;;;;;0.90;0.10;;;4.70;99.90;;;;;;5052995;28;20204;-53
2023/01/11 04:17:44;;;;;;;0.10;0.00;;;4.60;99.90;;;;;;5052965;28;20257;-53
2023/01/11 04:20:13;;;;;;;0.53;0.13;;;4.60;99.90;;;;;;5052770;28;20234;-53
2023/01/11 04:22:40;;;;;;;2.10;0.37;;;4.60;99.90;;;;;;5043461;28;20295;-52
2023/01/11 04:25:08;;;;;;;0.30;0.10;;;4.60;99.90;;;;;;5052160;28;20261;-53
2023/01/11 04:27:35;;;;;;;0.20;0.13;;;4.60;99.90;;;;;;5049356;28;20548;-53
2023/01/11 04:30:03;;;;;;;0.30;0.10;;;4.60;99.90;;;;;;5052580;28;20199;-55
2023/01/11 04:32:30;;;;;;;0.10;0.10;;;4.70;99.90;;;;;;5051741;28;20215;-53
2023/01/11 04:34:57;;;;;;;0.40;0.20;;;4.70;99.90;;;;;;5044268;28;20204;-53
2023/01/11 04:37:25;;;;;;;2.27;0.10;;;4.80;99.90;;;;;;5049863;28;20278;-53
2023/01/11 04:39:52;;;;;;;1.70;0.10;;;4.80;99.90;;;;;;5051750;28;20662;-53
2023/01/11 04:42:18;;;;;;;0.00;0.00;;;4.80;99.90;;;;;;5050612;28;20211;-53
2023/01/11 04:44:46;;;;;;;0.30;0.10;;;4.80;99.90;;;;;;5052100;28;20738;-53
2023/01/11 04:47:14;;;;;;;1.13;0.20;;;4.70;99.90;;;;;;5052266;28;20208;-53
2023/01/11 04:49:41;;;;;;;0.10;0.07;;;4.70;99.90;;;;;;5052818;28;20211;-53
2023/01/11 04:52:12;;;;;;;0.10;0.10;;;4.70;99.90;;;;;;5048992;28;20200;-52
2023/01/11 04:54:41;;;;;;;0.10;0.10;;;4.70;99.90;;;;;;5052210;28;20223;-54
2023/01/11 04:57:10;;;;;;;0.33;0.10;;;4.70;99.90;;;;;;5050288;28;20625;-53
2023/01/11 04:59:37;;;;;;;0.10;0.10;;;4.70;99.90;;;;;;5052012;28;20549;-53
2023/01/11 05:02:08;;;;;;;0.10;0.10;;;4.70;99.90;;;;;;5049542;28;20260;-53
2023/01/11 05:04:35;;;;;;;0.40;0.10;;;4.70;99.90;;;;;;5048920;28;20732;-52
2023/01/11 05:07:02;;;;;;;0.67;0.20;;;4.70;99.90;;;;;;5056958;28;20200;-53
2023/01/11 05:09:29;;;;;;;1.03;0.00;;;4.70;99.90;;;;;;5049369;28;20223;-53
2023/01/11 05:11:57;;;;;;;0.50;0.50;;;4.60;99.90;;;;;;5050720;28;20204;-53
2023/01/11 05:14:24;;;;;;;1.80;0.30;;;4.60;99.90;;;;;;5051449;28;20218;-53
2023/01/11 05:16:51;;;;;;;1.27;0.20;;;4.50;99.90;;;;;;5051721;28;20202;-53
2023/01/11 05:19:18;;;;;;;0.47;0.20;;;4.50;99.90;;;;;;5051506;28;20241;-53
2023/01/11 05:21:45;;;;;;;0.20;0.10;;;4.40;99.90;;;;;;5048844;28;20303;-53
2023/01/11 05:24:14;;;;;;;1.30;0.30;;;4.30;99.90;;;;;;5051418;28;20256;-53
2023/01/11 05:26:43;;;;;;;1.57;0.00;;;4.40;99.90;;;;;;5051595;28;20211;-52
2023/01/11 05:29:15;;;;;;;0.10;0.07;;;4.40;99.90;;;;;;5049118;28;20601;-53
2023/01/11 05:31:43;;;;;;;0.20;0.20;;;4.40;99.90;;;;;;5050608;28;20211;-53
2023/01/11 05:34:12;;;;;;;0.10;0.10;;;4.40;99.90;;;;;;5051190;28;20219;-53
2023/01/11 05:36:39;;;;;;;0.30;0.10;;;4.40;99.90;;;;;;5049388;28;20262;-53
2023/01/11 05:39:06;;;;;;;0.10;0.10;;;4.40;99.90;;;;;;5051018;28;20228;-52
2023/01/11 05:41:33;;;;;;;0.00;0.00;;;4.40;99.90;;;;;;5049072;28;20691;-52
2023/01/11 05:46:47;;;;;;;0.10;0.10;;;4.30;99.90;;;;;;5049616;28;20668;-53
2023/01/11 05:49:14;;;;;;;0.63;0.17;;;4.30;99.90;;;;;;5050361;28;20231;-54
2023/01/11 05:51:42;;;;;;;0.97;0.30;;;4.30;99.90;;;;;;5048829;28;20208;-52
2023/01/11 05:54:12;;;;;;;0.10;0.10;;;4.30;99.90;;;;;;5050518;28;20722;-52
2023/01/11 05:56:41;;;;;;;0.20;0.13;;;4.20;99.90;;;;;;5051155;28;20204;-52
2023/01/11 05:59:08;;;;;;;0.10;0.10;;;4.30;99.90;;;;;;5050973;28;20225;-52
2023/01/11 06:01:35;;;;;;;0.17;0.10;;;4.20;99.90;;;;;;5049692;28;20583;-53
2023/01/11 06:04:04;;;;;;;4.63;0.50;;;4.10;99.90;;;;;;5043449;28;20191;-53
2023/01/11 06:06:32;;;;;;;0.73;0.30;;;4.10;99.90;;;;;;5048316;28;20254;-53
2023/01/11 06:08:59;;;;;;;0.40;0.10;;;4.10;99.90;;;;;;5049227;28;20248;-52
2023/01/11 06:11:26;;;;;;;2.33;0.20;;;4.10;99.90;;;;;;5049668;28;20208;-52
2023/01/11 06:13:53;;;;;;;0.20;0.10;;;4.10;99.90;;;;;;5049743;28;20224;-52
2023/01/11 06:16:21;;;;;;;0.97;0.20;;;4.10;99.90;;;;;;5050610;28;20204;-52
2023/01/11 06:18:49;;;;;;;0.73;0.10;;;4.10;99.90;;;;;;5050644;28;20315;-53
2023/01/11 06:21:18;;;;;;;0.10;0.10;;;4.30;99.90;;;;;;5049794;28;20561;-51
2023/01/11 06:23:49;;;;;;;0.20;0.20;;;4.20;99.90;;;;;;5050516;28;20208;-53
2023/01/11 06:26:18;;;;;;;0.20;0.20;;;4.20;99.90;;;;;;5050437;28;20643;-51
2023/01/11 06:28:46;;;;;;;0.93;0.07;;;4.20;99.90;;;;;;5047963;28;20227;-53
2023/01/11 06:31:13;;;;;;;0.33;0.10;;;4.40;99.90;;;;;;5049550;28;20237;-52
2023/01/11 06:33:41;;;;;;;1.30;0.30;;;4.40;99.90;;;;;;5042168;28;20303;-51
2023/01/11 06:36:10;;;;;;;0.30;0.20;;;4.30;99.90;;;;;;5048251;28;20291;-53
2023/01/11 06:38:39;;;;;;;0.20;0.20;;;4.30;99.90;;;;;;5048768;28;20227;-53
2023/01/11 06:41:08;;;;;;;0.37;0.20;;;4.30;99.90;;;;;;5047942;28;20253;-53
2023/01/11 06:43:36;;;;;;;0.40;0.40;;;4.20;99.90;;;;;;5049349;28;20204;-53
2023/01/11 06:46:04;;;;;;;1.03;0.50;;;4.20;99.90;;;;;;5049812;28;20250;-54
2023/01/11 06:48:31;;;;;;;0.10;0.10;;;4.10;99.90;;;;;;5050015;28;20304;-51
2023/01/11 06:50:59;;;;;;;1.00;0.20;;;4.10;99.90;;;;;;5036692;28;20196;-52
2023/01/11 06:53:27;;;;;;;1.63;0.20;;;4.10;99.90;;;;;;5051194;28;20731;-52
2023/01/11 06:55:58;;;;;;;1.33;0.37;;;3.90;99.90;;;;;;5048657;28;20332;-52
2023/01/11 06:58:26;;;;;;;0.30;0.30;;;3.90;99.90;;;;;;5050038;28;20232;-53
2023/01/11 07:00:55;;;;;;;1.43;0.20;;;3.90;99.90;;;;;;5047183;28;20607;-52
2023/01/11 07:03:23;;;;;;;1.50;0.20;;;3.90;99.90;;;;;;5047593;28;20235;-53
2023/01/11 07:05:51;;;;;;;4.03;0.23;;;4.00;99.90;;;;;;5051582;28;20200;-52
2023/01/11 07:08:19;;;;;;;0.10;0.10;;;4.20;99.90;;;;;;5048493;28;20220;-53
2023/01/11 07:10:46;;;;;;;0.10;0.10;;;4.20;99.90;;;;;;5053628;28;20227;-54
2023/01/11 07:13:16;;;;;;;2.40;0.20;;;4.30;99.90;;;;;;5053318;28;20207;-53
2023/01/11 07:15:43;;;;;;;3.20;0.37;;;4.20;99.90;;;;;;5052026;28;20294;-52
2023/01/11 07:18:11;;;;;;;2.30;0.10;;;4.20;99.90;;;;;;5050246;28;20216;-53
2023/01/11 07:20:38;;;;;;;0.27;0.20;;;4.30;99.90;;;;;;5053860;28;20199;-53
2023/01/11 07:23:06;;;;;;;1.60;0.37;;;4.20;99.90;;;;;;5051504;28;20308;-52
2023/01/11 07:25:34;;;;;;;0.20;0.20;;;4.20;99.90;;;;;;5053670;28;20279;-53
2023/01/11 07:28:02;;;;;;;0.33;0.33;;;4.10;99.90;;;;;;5053829;28;20241;-51
2023/01/11 07:30:33;;;;;;;1.43;0.20;;;4.10;99.90;;;;;;5052460;28;20211;-50
2023/01/11 07:33:02;;;;;;;0.57;0.20;;;4.20;99.90;;;;;;5044039;28;20261;-50
2023/01/11 07:35:30;;;;;;;0.40;0.40;;;4.10;99.90;;;;;;5052084;28;20224;-51
2023/01/11 07:37:57;;;;;;;0.50;0.30;;;4.00;99.90;;;;;;5053363;28;20228;-51
2023/01/11 07:40:24;;;;;;;0.70;0.20;;;4.10;99.90;;;;;;5053638;28;20250;-51
2023/01/11 07:43:13;;;;;;;0.30;0.20;;;4.10;99.90;;;;;;5049779;28;20254;-51
2023/01/11 07:45:44;;;;;;;0.67;0.50;;;4.10;99.90;;;;;;5050293;28;20199;-51
2023/01/11 07:48:12;;;;;;;0.43;0.37;;;4.10;99.90;;;;;;5050752;28;20216;-51
2023/01/11 07:50:40;;;;;;;1.60;0.37;;;4.20;99.90;;;;;;5045827;28;20218;-51
2023/01/11 07:53:08;;;;;;;0.40;0.20;;;4.30;99.90;;;;;;5051848;28;20281;-50
2023/01/11 07:55:36;;;;;;;0.40;0.10;;;4.40;99.90;;;;;;5033240;28;20281;-51
2023/01/11 07:58:04;;;;;;;0.73;0.50;;;4.50;99.90;;;;;;5051014;28;20215;-50
2023/01/11 08:00:31;;;;;;;2.87;1.13;;;4.50;99.90;;;;;;5048139;28;20607;-50
2023/01/11 08:03:01;;;;;;;0.40;0.20;;;4.60;99.90;;;;;;5050542;28;20199;-51
2023/01/11 08:05:28;;;;;;;0.20;0.20;;;4.60;99.90;;;;;;5052180;28;20246;-51
2023/01/11 08:07:55;;;;;;;0.33;0.33;;;4.60;99.90;;;;;;5050958;28;20272;-51
2023/01/11 08:10:22;;;;;;;0.20;0.20;;;4.60;99.90;;;;;;5050425;28;20731;-50
2023/01/11 08:15:35;;;;;;;1.00;0.30;;;4.70;99.90;;;;;;5052217;28;20312;-50
2023/01/11 08:18:05;;;;;;;0.63;0.20;;;4.70;99.90;;;;;;5050074;28;20259;-51
2023/01/11 08:20:32;;;;;;;0.43;0.27;;;4.70;99.90;;;;;;5052677;28;20248;-51
2023/01/11 08:23:03;;;;;;;0.37;0.10;;;4.80;99.90;;;;;;5046394;28;20760;-50
2023/01/11 08:25:30;;;;;;;0.97;0.20;;;4.90;99.90;;;;;;5048965;28;20614;-51
2023/01/11 08:28:00;;;;;;;0.60;0.20;;;4.90;99.90;;;;;;5050599;28;20774;-51
2023/01/11 08:30:27;;;;;;;0.10;0.10;;;5.10;99.90;;;;;;5048467;28;20628;-51
2023/01/11 08:32:55;;;;;;;0.23;0.13;;;5.20;99.90;;;;;;5048807;28;20204;-51
2023/01/11 08:35:24;;;;;;;0.53;0.10;;;5.20;99.90;;;;;;5051447;28;20224;-52
2023/01/11 08:37:51;;;;;;;0.20;0.10;;;5.30;99.90;;;;;;5045484;28;20240;-50
2023/01/11 08:40:18;;;;;;;0.50;0.10;;;5.30;99.90;;;;;;5051779;28;20263;-51
2023/01/11 08:42:45;;;;;;;0.77;0.17;;;5.40;99.90;;;;;;5051935;28;20702;-50
2023/01/11 08:45:12;;;;;;;0.97;0.40;;;5.60;99.90;;;;;;5052445;28;20547;-51
2023/01/11 08:47:39;;;;;;;0.60;0.30;;;5.70;99.90;;;;;;5050410;28;20789;-51
2023/01/11 08:50:08;;;;;;;0.40;0.30;;;5.80;99.90;;;;;;5047444;28;20208;-50
2023/01/11 08:52:36;;;;;;;2.80;0.20;;;6.00;99.90;;;;;;5047729;28;20204;-50
2023/01/11 08:55:06;;;;;;;4.10;0.30;;;5.90;99.90;;;;;;5045177;28;20212;-50
2023/01/11 08:57:33;;;;;;;0.40;0.40;;;6.10;99.90;;;;;;5032204;28;20690;-51
2023/01/11 09:00:00;;;;;;;0.80;0.30;;;6.00;99.90;;;;;;5046297;28;20288;-50
2023/01/11 09:02:27;;;;;;;0.73;0.20;;;6.10;99.90;;;;;;5052435;28;20203;-51
2023/01/11 09:04:54;;;;;;;0.37;0.30;;;6.10;99.90;;;;;;5052228;28;20557;-50
2023/01/11 09:07:21;;;;;;;2.90;0.40;;;6.20;99.90;;;;;;5052052;28;20212;-51
2023/01/11 09:09:50;;;;;;;3.67;0.47;;;6.20;99.90;;;;;;5051843;28;20205;-51
2023/01/11 09:12:17;;;;;;;1.00;0.50;;;6.30;99.90;;;;;;5051711;28;20207;-52
2023/01/11 09:14:44;;;;;;;0.40;0.40;;;6.30;99.90;;;;;;5051617;28;20214;-51
2023/01/11 09:17:11;;;;;;;2.17;0.30;;;6.40;99.90;;;;;;5044054;28;20208;-51
2023/01/11 09:19:38;;;;;;;0.87;0.40;;;6.60;99.90;;;;;;5036067;28;20216;-51
2023/01/11 09:22:09;;;;;;;2.67;0.30;;;6.70;99.90;;;;;;5037566;28;20200;-51
2023/01/11 09:24:36;;;;;;;0.60;0.53;;;6.80;99.90;;;;;;5050407;28;20201;-51
2023/01/11 09:27:10;;;;;;;0.20;0.20;;;6.90;99.90;;;;;;5031912;28;20205;-52
2023/01/11 09:29:37;;;;;;;1.33;0.50;;;7.00;99.90;;;;;;5046680;28;20218;-51
2023/01/11 09:32:07;;;;;;;2.00;0.20;;;7.00;99.90;;;;;;5041036;28;20567;-52
2023/01/11 09:34:34;;;;;;;1.23;0.20;;;7.00;99.90;;;;;;5050323;28;20284;-51
2023/01/11 09:37:05;;;;;;;2.20;0.20;;;7.00;99.90;;;;;;5051257;28;20243;-51
2023/01/11 09:39:33;;;;;;;0.50;0.20;;;7.00;99.90;;;;;;5050198;28;20353;-51
2023/01/11 09:42:30;;;;;;;0.20;0.20;;;7.00;99.90;;;;;;5047358;28;20247;-51
2023/01/11 09:45:04;;;;;;;0.70;0.50;;;7.00;99.90;;;;;;5031257;28;20201;-50
2023/01/11 09:47:38;;;;;;;6.00;1.00;;;6.90;99.90;;;;;;5031228;28;20233;-51
2023/01/11 09:50:12;;;;;;;0.20;0.20;;;6.90;99.90;;;;;;5037078;28;20203;-51
2023/01/11 09:52:42;;;;;;;0.80;0.20;;;6.90;99.90;;;;;;5046008;28;20207;-51
2023/01/11 09:55:14;;;;;;;0.83;0.40;;;6.90;99.90;;;;;;5050122;28;20215;-51
2023/01/11 09:57:55;;;;;;;0.43;0.30;;;6.90;99.90;;;;;;5047987;28;20227;-51
2023/01/11 10:00:31;;;;;;;0.37;0.20;;;6.80;99.90;;;;;;5048055;28;20344;-52
2023/01/11 10:03:23;;;;;;;0.30;0.30;;;6.90;99.90;;;;;;5042319;28;20204;-51
2023/01/11 10:06:05;;;;;;;0.40;0.40;;;6.90;99.90;;;;;;5047075;28;20199;-51
2023/01/11 10:08:46;;;;;;;0.83;0.30;;;6.90;99.90;;;;;;5049809;28;20228;-52
2023/01/11 10:11:27;;;;;;;1.33;0.10;;;6.90;99.90;;;;;;5048077;28;20210;-51
2023/01/11 10:14:05;;;;;;;0.17;0.17;;;6.90;99.90;;;;;;5050138;28;20659;-51
2023/01/11 10:16:41;;;;;;;0.13;0.13;;;7.00;99.90;;;;;;5047058;28;20199;-51
2023/01/11 10:19:17;;;;;;;1.20;0.40;;;7.00;99.90;;;;;;5048197;28;20261;-51
2023/01/11 10:21:48;;;;;;;0.20;0.20;;;6.90;99.90;;;;;;5047590;28;20230;-51
2023/01/11 10:24:22;;;;;;;0.13;0.10;;;6.90;99.90;;;;;;5049064;28;20299;-51
2023/01/11 10:26:52;;;;;;;1.27;0.10;;;6.90;99.90;;;;;;5047939;28;20273;-51
2023/01/11 10:32:51;;;;;;;0.10;0.10;;;7.00;99.90;;;;;;5048148;28;20219;-51
2023/01/11 10:35:40;;;;;;;1.20;0.10;;;7.00;99.90;;;;;;5049709;28;20234;-51
2023/01/11 10:38:31;;;;;;;0.20;0.20;;;7.10;99.90;;;;;;5046837;28;20297;-51
2023/01/11 10:41:07;;;;;;;1.27;0.10;;;7.10;99.90;;;;;;5048115;28;20206;-51
2023/01/11 10:43:37;;;;;;;1.80;0.20;;;7.20;99.90;;;;;;5049572;28;20280;-51
2023/01/11 10:46:11;;;;;;;0.10;0.10;;;7.30;99.90;;;;;;5046300;28;20199;-51
2023/01/11 10:48:40;;;;;;;0.10;0.10;;;7.30;99.90;;;;;;5048471;28;20776;-51
2023/01/11 10:51:23;;;;;;;0.27;0.27;;;7.40;99.90;;;;;;5049197;28;20203;-51
2023/01/11 10:54:00;;;;;;;0.33;0.20;;;7.50;99.90;;;;;;5048006;28;20278;-51
2023/01/11 10:56:48;;;;;;;0.43;0.20;;;7.60;99.90;;;;;;5040603;28;20244;-51
2023/01/11 10:59:33;;;;;;;0.10;0.10;;;7.60;99.90;;;;;;5040837;28;20607;-51
2023/01/11 11:02:14;;;;;;;0.13;0.10;;;7.70;99.90;;;;;;5040279;28;20210;-51
2023/01/11 11:05:06;;;;;;;0.88;0.20;;;7.90;99.90;;;;;;5039806;28;20474;-51
2023/01/11 11:07:41;;;;;;;0.73;0.37;;;8.00;99.90;;;;;;5041030;28;20262;-52
2023/01/11 11:10:14;;;;;;;0.20;0.13;;;8.10;99.90;;;;;;5041890;28;21243;-51
2023/01/11 11:12:50;;;;;;;0.57;0.30;;;8.00;99.90;;;;;;5040765;28;20201;-51
2023/01/11 11:15:23;;;;;;;0.40;0.20;;;7.90;99.90;;;;;;5041165;28;20222;-51
2023/01/11 11:17:54;;;;;;;2.53;1.37;;;7.90;99.90;;;;;;5041229;28;20250;-51
2023/01/11 11:20:24;;;;;;;30.73;10.27;;;7.90;99.90;;;;;;5040264;28;20676;-51
2023/01/11 11:22:51;;;;;;;9.43;3.53;;;7.70;99.90;;;;;;5041100;28;21137;-51
2023/01/11 11:25:21;;;;;;;4.73;1.30;;;7.60;99.90;;;;;;5041139;28;20676;-52
2023/01/11 11:27:51;;;;;;;2.83;0.47;;;7.70;99.90;;;;;;5046312;28;20238;-51
2023/01/11 11:30:28;;;;;;;0.20;0.20;;;7.60;99.90;;;;;;5041753;28;20204;-51
2023/01/11 11:32:59;;;;;;;0.77;0.30;;;7.50;99.90;;;;;;5041496;28;21222;-51
2023/01/11 11:35:37;;;;;;;0.63;0.30;;;7.40;99.90;;;;;;5040864;28;20230;-51
2023/01/11 11:38:04;;;;;;;1.80;0.30;;;7.40;99.90;;;;;;5040723;28;20264;-51
2023/01/11 11:40:33;;;;;;;0.60;0.30;;;7.40;99.90;;;;;;5040836;28;20277;-51
2023/01/11 11:43:17;;;;;;;0.60;0.60;;;7.30;99.90;;;;;;5039617;28;20773;-51
2023/01/11 11:45:52;;;;;;;1.80;0.20;;;7.30;99.90;;;;;;5040909;28;20201;-51
2023/01/11 11:48:21;;;;;;;0.40;0.30;;;7.30;99.90;;;;;;5046909;28;20224;-51
2023/01/11 11:50:49;;;;;;;0.67;0.27;;;7.30;99.90;;;;;;5043931;28;20236;-52
2023/01/11 11:53:27;;;;;;;0.53;0.50;;;7.30;99.90;;;;;;5045500;28;20671;-51
2023/01/11 11:55:54;;;;;;;1.57;0.20;;;7.30;99.90;;;;;;5049698;28;20231;-51
2023/01/11 11:58:25;;;;;;;0.27;0.27;;;7.40;99.90;;;;;;5049625;28;20224;-51
2023/01/11 12:00:52;;;;;;;2.57;0.20;;;7.40;99.90;;;;;;5043088;28;20274;-51
2023/01/11 12:03:24;;;;;;;2.37;1.47;;;7.40;99.90;;;;;;5043704;28;20199;-50
2023/01/11 12:05:54;;;;;;;0.10;0.10;;;7.40;99.90;;;;;;5044164;28;20205;-50
2023/01/11 12:08:24;;;;;;;2.33;0.30;;;7.40;99.90;;;;;;5044226;28;20228;-50
2023/01/11 12:10:56;;;;;;;0.30;0.27;;;7.50;99.90;;;;;;5044489;28;20301;-50
2023/01/11 12:13:32;;;;;;;1.67;0.30;;;7.40;99.90;;;;;;5044846;28;20204;-51
2023/01/11 12:16:01;;;;;;;0.53;0.20;;;7.30;99.90;;;;;;5043926;28;20812;-51
2023/01/11 12:18:32;;;;;;;0.93;0.20;;;7.30;99.90;;;;;;5043313;28;20217;-52
2023/01/11 12:21:21;;;;;;;1.13;0.10;;;7.30;99.90;;;;;;5043607;28;20209;-51
2023/01/11 12:23:48;;;;;;;0.57;0.40;;;7.20;99.90;;;;;;5044109;28;20202;-51
2023/01/11 12:26:24;;;;;;;1.63;0.30;;;7.20;99.90;;;;;;5043732;28;20730;-51
2023/01/11 12:29:25;;;;;;;0.20;0.20;;;7.30;99.90;;;;;;5043412;28;20223;-49
2023/01/11 12:32:11;;;;;;;0.30;0.30;;;7.30;99.90;;;;;;5029100;28;20631;-51
2023/01/11 12:34:59;;;;;;;1.07;0.40;;;7.20;99.90;;;;;;5044396;28;20271;-51
2023/01/11 12:37:43;;;;;;;0.47;0.40;;;7.20;99.90;;;;;;5047500;28;20615;-51
2023/01/11 12:40:17;;;;;;;0.30;0.30;;;7.30;99.90;;;;;;5044408;28;21486;-51
2023/01/11 12:43:21;;;;;;;0.33;0.33;;;7.30;99.90;;;;;;5043715;28;20207;-51
2023/01/11 12:45:52;;;;;;;6.77;1.53;;;7.30;99.90;;;;;;5043104;28;20210;-54
2023/01/11 12:48:43;;;;;;;0.50;0.40;;;7.30;99.90;;;;;;5043460;28;20235;-51
2023/01/11 12:51:32;;;;;;;1.20;0.40;;;7.30;99.90;;;;;;5044170;28;20217;-53
2023/01/11 12:54:19;;;;;;;0.60;0.40;;;7.30;99.90;;;;;;5043754;28;20199;-51
2023/01/11 12:57:12;;;;;;;1.27;0.43;;;7.40;99.90;;;;;;5043358;28;20228;-52
2023/01/11 13:00:02;;;;;;;2.20;0.50;;;7.40;99.90;;;;;;5041677;28;20199;-53
2023/01/11 13:02:42;;;;;;;1.43;0.93;;;7.40;99.90;;;;;;5043451;28;20270;-54
2023/01/11 13:05:18;;;;;;;0.90;0.47;;;7.40;99.90;;;;;;5048937;28;20201;-52
2023/01/11 13:07:58;;;;;;;1.47;0.50;;;7.40;99.90;;;;;;5043536;28;20232;-53
2023/01/11 13:10:39;;;;;;;1.17;0.50;;;7.50;99.90;;;;;;5042732;28;20212;-52
2023/01/11 13:13:14;;;;;;;3.30;0.67;;;7.40;99.90;;;;;;5043664;28;20310;-52
2023/01/11 13:15:48;;;;;;;0.47;0.43;;;7.50;99.90;;;;;;5043463;28;20226;-53
2023/01/11 13:18:26;;;;;;;1.00;1.00;;;7.50;99.90;;;;;;5045075;28;20219;-52
2023/01/11 13:20:56;;;;;;;1.30;0.30;;;7.50;99.90;;;;;;5043047;28;20211;-53
2023/01/11 13:23:33;;;;;;;1.50;0.60;;;7.50;99.90;;;;;;5041705;28;20262;-51
2023/01/11 13:26:09;;;;;;;2.10;0.90;;;7.50;99.90;;;;;;5043132;28;20204;-51
2023/01/11 13:28:42;;;;;;;0.57;0.57;;;7.40;99.90;;;;;;5043493;28;21027;-53
2023/01/11 13:31:12;;;;;;;1.40;0.63;;;7.40;99.90;;;;;;5042782;28;20253;-51
2023/01/11 13:33:43;;;;;;;0.57;0.57;;;7.30;99.90;;;;;;5043797;28;20317;-53
2023/01/11 13:36:14;;;;;;;1.43;0.90;;;7.30;99.90;;;;;;5043078;28;20259;-53
2023/01/11 13:38:48;;;;;;;0.67;0.57;;;7.20;99.90;;;;;;5042809;28;20237;-52
2023/01/11 13:41:19;;;;;;;0.87;0.77;;;7.20;99.90;;;;;;5042869;28;20727;-54